createdAt,value
2023-04-24T00:04:00.805Z,97395.94
2023-04-24T00:09:06.085Z,97396.94
2023-04-24T00:14:09.990Z,97395.16
2023-04-24T00:19:15.471Z,97389.72
2023-04-24T00:24:19.641Z,97384.31
2023-04-24T00:29:23.878Z,97382.53
2023-04-24T00:34:29.330Z,97381.91
2023-04-24T00:39:33.844Z,97372.69
2023-04-24T00:44:37.913Z,97363.81
2023-04-24T00:49:43.721Z,97366.63
2023-04-24T00:54:47.917Z,97367.03
2023-04-24T00:59:53.377Z,97358.34
2023-04-24T01:04:59.020Z,97355.16
2023-04-24T01:10:03.633Z,97354.56
2023-04-24T01:15:09.043Z,97348.50
2023-04-24T01:20:14.801Z,97343.28
2023-04-24T01:25:20.518Z,97338.84
2023-04-24T01:30:24.738Z,97339.59
2023-04-24T01:35:29.144Z,97334.38
2023-04-24T01:40:34.881Z,97327.16
2023-04-24T01:45:39.096Z,97326.28
2023-04-24T01:50:43.321Z,97322.22
2023-04-24T01:55:50.936Z,97315.00
2023-04-24T02:00:55.095Z,97323.78
2023-04-24T02:05:58.951Z,97314.34
2023-04-24T02:11:04.196Z,97311.28
2023-04-24T02:16:09.443Z,97303.22
2023-04-24T02:21:13.521Z,97294.78
2023-04-24T02:26:19.257Z,97296.09
2023-04-24T02:31:23.516Z,97292.63
2023-04-24T02:36:27.562Z,97283.81
2023-04-24T02:41:33.864Z,97284.97
2023-04-24T02:46:38.200Z,97284.63
2023-04-24T02:51:42.875Z,97283.19
2023-04-24T02:56:48.270Z,97295.56
2023-04-24T03:01:52.354Z,97284.72
2023-04-24T03:06:57.469Z,97294.59
2023-04-24T03:12:03.085Z,97285.59
2023-04-24T03:17:08.342Z,97278.34
2023-04-24T03:22:12.598Z,97283.75
2023-04-24T03:27:19.333Z,97282.50
2023-04-24T03:32:52.213Z,97280.09
2023-04-24T03:38:01.498Z,97278.50
2023-04-24T03:43:19.740Z,97281.69
2023-04-24T03:48:24.375Z,97278.69
2023-04-24T03:53:28.930Z,97286.88
2023-04-24T03:58:35.378Z,97282.03
2023-04-24T04:03:40.146Z,97292.28
2023-04-24T04:08:44.724Z,97293.97
2023-04-24T04:13:50.184Z,97286.03
2023-04-24T04:18:57.465Z,97281.47
2023-04-24T04:24:02.996Z,97286.34
2023-04-24T04:29:13.279Z,97288.38
2023-04-24T04:34:20.933Z,97282.19
2023-04-24T04:39:25.101Z,97282.59
2023-04-24T04:44:51.548Z,97287.28
2023-04-24T04:50:00.672Z,97288.66
2023-04-24T04:55:06.464Z,97281.66
2023-04-24T05:00:44.224Z,97284.84
2023-04-24T05:05:54.791Z,97286.09
2023-04-24T05:10:59.049Z,97288.94
2023-04-24T05:16:06.768Z,97282.75
2023-04-24T05:21:11.982Z,97284.06
2023-04-24T05:26:18.825Z,97285.72
2023-04-24T05:31:24.319Z,97284.56
2023-04-24T05:36:29.163Z,97284.78
2023-04-24T05:41:33.269Z,97288.03
2023-04-24T05:46:39.243Z,97281.63
2023-04-24T05:51:43.618Z,97274.72
2023-04-24T05:56:47.748Z,97266.81
2023-04-24T06:02:00.211Z,97275.13
2023-04-24T06:07:04.179Z,97265.84
2023-04-24T06:12:09.923Z,97272.88
2023-04-24T06:17:29.179Z,97268.44
2023-04-24T06:22:33.469Z,97267.38
2023-04-24T06:27:37.303Z,97258.00
2023-04-24T06:32:43.465Z,97259.66
2023-04-24T06:37:48.230Z,97258.09
2023-04-24T06:42:52.109Z,97262.53
2023-04-24T06:47:57.551Z,97260.31
2023-04-24T06:53:01.607Z,97261.94
2023-04-24T06:58:07.082Z,97257.53
2023-04-24T07:03:12.603Z,97271.47
2023-04-24T07:08:18.047Z,97261.38
2023-04-24T07:13:21.862Z,97260.88
2023-04-24T07:18:27.141Z,97267.66
2023-04-24T07:23:31.911Z,97262.00
2023-04-24T07:28:36.185Z,97254.41
2023-04-24T07:33:41.926Z,97255.66
2023-04-24T07:38:45.978Z,97265.25
2023-04-24T07:43:50.066Z,97273.03
2023-04-24T07:49:09.269Z,97275.09
2023-04-24T07:54:16.341Z,97267.91
2023-04-24T07:59:20.597Z,97267.38
2023-04-24T08:04:25.915Z,97281.28
2023-04-24T08:09:29.973Z,97279.47
2023-04-24T08:14:33.820Z,97267.19
2023-04-24T08:19:39.060Z,97269.41
2023-04-24T08:24:43.292Z,97266.09
2023-04-24T08:29:47.177Z,97265.00
2023-04-24T08:34:53.748Z,97268.66
2023-04-24T08:39:57.869Z,97266.09
2023-04-24T08:45:02.044Z,97262.47
2023-04-24T08:50:09.083Z,97244.19
2023-04-24T08:55:13.117Z,97236.91
2023-04-24T09:00:18.112Z,97252.84
2023-04-24T09:05:27.063Z,97253.41
2023-04-24T09:10:32.650Z,97254.25
2023-04-24T09:15:37.008Z,97248.19
2023-04-24T09:21:03.885Z,97249.97
2023-04-24T09:26:07.918Z,97251.41
2023-04-24T09:31:15.073Z,97236.63
2023-04-24T09:36:21.160Z,97233.41
2023-04-24T09:41:25.123Z,97224.06
2023-04-24T09:46:34.214Z,97234.47
2023-04-24T09:51:40.808Z,97225.16
2023-04-24T09:56:46.826Z,97228.91
2023-04-24T10:01:51.900Z,97227.63
2023-04-24T10:06:59.096Z,97224.13
2023-04-24T10:12:04.441Z,97203.97
2023-04-24T10:17:08.930Z,97209.44
2023-04-24T10:22:15.096Z,97204.06
2023-04-24T10:27:19.129Z,97190.44
2023-04-24T10:32:23.687Z,97198.22
2023-04-24T10:37:29.438Z,97204.16
2023-04-24T10:42:33.600Z,97194.66
2023-04-24T10:47:42.663Z,97192.97
2023-04-24T10:52:48.565Z,97188.13
2023-04-24T10:58:05.747Z,97187.69
2023-04-24T11:03:24.544Z,97176.28
2023-04-24T11:08:38.481Z,97182.84
2023-04-24T11:14:06.463Z,97177.25
2023-04-24T11:19:12.219Z,97172.97
2023-04-24T11:24:32.953Z,97166.50
2023-04-24T11:30:02.266Z,97170.97
2023-04-24T11:35:10.953Z,97164.13
2023-04-24T11:40:17.549Z,97163.16
2023-04-24T11:45:24.280Z,97147.44
2023-04-24T11:50:30.463Z,97153.34
2023-04-24T11:55:36.705Z,97150.22
2023-04-24T12:00:40.979Z,97152.19
2023-04-24T12:05:46.181Z,97147.47
2023-04-24T12:10:53.363Z,97139.69
2023-04-24T12:15:58.865Z,97136.22
2023-04-24T12:21:21.418Z,97144.78
2023-04-24T12:26:30.115Z,97109.69
2023-04-24T12:31:34.759Z,97098.28
2023-04-24T12:36:38.801Z,97079.75
2023-04-24T12:41:53.068Z,97075.75
2023-04-24T12:46:57.088Z,97063.28
2023-04-24T12:52:01.056Z,97059.66
2023-04-24T12:57:06.696Z,97056.00
2023-04-24T13:02:11.220Z,97055.47
2023-04-24T13:07:16.024Z,97047.72
2023-04-24T13:12:21.626Z,97035.72
2023-04-24T13:17:25.723Z,97038.72
2023-04-24T13:22:30.150Z,97055.91
2023-04-24T13:27:35.693Z,97073.16
2023-04-24T13:32:39.822Z,97071.38
2023-04-24T13:37:43.960Z,97065.81
2023-04-24T13:42:49.540Z,97069.56
2023-04-24T13:47:54.876Z,97070.00
2023-04-24T13:53:02.634Z,97062.00
2023-04-24T13:58:08.591Z,97060.34
2023-04-24T14:03:13.200Z,97059.16
2023-04-24T14:08:17.483Z,97069.53
2023-04-24T14:13:23.140Z,97069.34
2023-04-24T14:18:28.138Z,97069.53
2023-04-24T14:23:32.014Z,97073.31
2023-04-24T14:28:37.591Z,97069.72
2023-04-24T14:33:41.411Z,97072.44
2023-04-24T14:38:45.739Z,97075.84
2023-04-24T14:43:51.143Z,97065.66
2023-04-24T14:48:54.967Z,97062.94
2023-04-24T14:53:59.181Z,97058.47
2023-04-24T14:59:05.267Z,97061.97
2023-04-24T15:04:09.651Z,97062.16
2023-04-24T15:09:13.809Z,97061.31
2023-04-24T15:14:19.588Z,97061.13
2023-04-24T15:19:23.426Z,97064.69
2023-04-24T15:24:27.253Z,97056.78
2023-04-24T15:29:32.465Z,97051.72
2023-04-24T15:34:36.368Z,97055.81
2023-04-24T15:39:40.313Z,97043.50
2023-04-24T15:44:46.064Z,97042.44
2023-04-24T15:49:50.386Z,97040.63
2023-04-24T15:54:54.234Z,97036.72
2023-04-24T15:59:59.608Z,97043.09
2023-04-24T16:05:04.429Z,97037.28
2023-04-24T16:10:09.265Z,97045.94
2023-04-24T16:15:14.503Z,97043.97
2023-04-24T16:20:18.639Z,97050.91
2023-04-24T16:25:22.828Z,97050.59
2023-04-24T16:30:28.328Z,97059.97
2023-04-24T16:35:32.366Z,97063.25
2023-04-24T16:40:36.227Z,97060.56
2023-04-24T16:45:41.641Z,97058.50
2023-04-24T16:50:46.219Z,97066.91
2023-04-24T16:55:51.300Z,97062.13
2023-04-24T17:00:57.096Z,97068.22
2023-04-24T17:06:01.143Z,97071.38
2023-04-24T17:11:05.099Z,97076.66
2023-04-24T17:16:10.963Z,97081.06
2023-04-24T17:21:15.092Z,97079.25
2023-04-24T17:26:19.392Z,97091.00
2023-04-24T17:31:25.269Z,97095.13
2023-04-24T17:36:29.332Z,97096.28
2023-04-24T17:41:33.450Z,97106.44
2023-04-24T17:46:38.902Z,97106.44
2023-04-24T17:51:43.167Z,97112.69
2023-04-24T17:56:47.453Z,97108.16
2023-04-24T18:01:53.947Z,97114.31
2023-04-24T18:06:59.705Z,97123.09
2023-04-24T18:12:04.350Z,97129.56
2023-04-24T18:17:09.705Z,97131.72
2023-04-24T18:22:13.712Z,97142.09
2023-04-24T18:27:17.731Z,97143.41
2023-04-24T18:32:23.117Z,97152.44
2023-04-24T18:37:27.454Z,97154.34
2023-04-24T18:42:31.705Z,97158.28
2023-04-24T18:47:37.006Z,97156.59
2023-04-24T18:52:40.960Z,97161.66
2023-04-24T18:57:44.779Z,97161.16
2023-04-24T19:02:50.658Z,97162.66
2023-04-24T19:07:54.612Z,97173.31
2023-04-24T19:12:58.547Z,97173.72
2023-04-24T19:18:03.941Z,97175.75
2023-04-24T19:23:08.544Z,97180.09
2023-04-24T19:28:12.409Z,97184.81
2023-04-24T19:33:17.947Z,97182.03
2023-04-24T19:38:22.870Z,97176.34
2023-04-24T19:43:26.878Z,97178.97
2023-04-24T19:48:32.791Z,97177.97
2023-04-24T19:53:36.660Z,97183.84
2023-04-24T19:58:40.873Z,97176.19
2023-04-24T20:03:46.795Z,97180.88
2023-04-24T20:08:51.135Z,97184.25
2023-04-24T20:13:56.479Z,97189.00
2023-04-24T20:19:02.025Z,97187.19
2023-04-24T20:24:08.723Z,97185.88
2023-04-24T20:29:13.979Z,97185.09
2023-04-24T20:34:19.432Z,97178.31
2023-04-24T20:39:23.449Z,97176.91
2023-04-24T20:44:27.476Z,97171.19
2023-04-24T20:49:33.229Z,97175.22
2023-04-24T20:54:37.096Z,97174.22
2023-04-24T20:59:40.983Z,97171.66
2023-04-24T21:04:46.577Z,97176.53
2023-04-24T21:09:51.357Z,97174.50
2023-04-24T21:14:55.634Z,97176.94
2023-04-24T21:20:00.894Z,97184.63
2023-04-24T21:25:05.118Z,97185.47
2023-04-24T21:30:10.252Z,97184.28
2023-04-24T21:35:15.395Z,97187.88
2023-04-24T21:40:19.720Z,97192.19
2023-04-24T21:45:23.590Z,97197.22
2023-04-24T21:50:29.456Z,97200.66
2023-04-24T21:55:33.593Z,97202.88
2023-04-24T22:00:37.490Z,97205.50
2023-04-24T22:05:42.990Z,97209.31
2023-04-24T22:10:46.809Z,97202.91
2023-04-24T22:15:51.657Z,97203.09
2023-04-24T22:20:57.280Z,97206.13
2023-04-24T22:26:01.652Z,97204.50
2023-04-24T22:31:06.157Z,97207.50
2023-04-24T22:36:11.872Z,97200.28
2023-04-24T22:41:16.105Z,97204.47
2023-04-24T22:46:20.334Z,97205.91
2023-04-24T22:51:26.065Z,97208.50
2023-04-24T22:56:31.732Z,97202.88
2023-04-24T23:01:35.569Z,97204.47
2023-04-24T23:06:41.455Z,97206.09
2023-04-24T23:11:45.973Z,97202.06
2023-04-24T23:16:50.277Z,97193.25
2023-04-24T23:21:56.055Z,97198.47
2023-04-24T23:27:00.129Z,97197.25
2023-04-24T23:32:04.163Z,97204.66
2023-04-24T23:37:09.564Z,97191.00
2023-04-24T23:42:13.558Z,97191.44
2023-04-24T23:47:17.416Z,97185.22
2023-04-24T23:52:22.758Z,97181.59
2023-04-24T23:57:26.812Z,97187.22
